sensor_id;sensor_type;location;lat;lon;timestamp;P1;durP1;ratioP1;P2;durP2;ratioP2
71366;SDS011;60030;52.274;8.040;2023-02-03T00:00:10;13.90;;;9.23;;
71366;SDS011;60030;52.274;8.040;2023-02-03T00:02:37;11.23;;;8.57;;
71366;SDS011;60030;52.274;8.040;2023-02-03T00:05:05;18.30;;;9.90;;
71366;SDS011;60030;52.274;8.040;2023-02-03T00:07:33;19.23;;;9.93;;
71366;SDS011;60030;52.274;8.040;2023-02-03T00:10:00;19.33;;;10.17;;
71366;SDS011;60030;52.274;8.040;2023-02-03T00:12:28;16.00;;;9.60;;
71366;SDS011;60030;52.274;8.040;2023-02-03T00:14:57;15.77;;;9.80;;
71366;SDS011;60030;52.274;8.040;2023-02-03T00:17:24;15.53;;;9.33;;
71366;SDS011;60030;52.274;8.040;2023-02-03T00:19:51;14.77;;;9.43;;
71366;SDS011;60030;52.274;8.040;2023-02-03T00:22:18;18.10;;;9.33;;
71366;SDS011;60030;52.274;8.040;2023-02-03T00:24:45;20.77;;;9.87;;
71366;SDS011;60030;52.274;8.040;2023-02-03T00:27:12;17.67;;;10.43;;
71366;SDS011;60030;52.274;8.040;2023-02-03T00:29:39;14.10;;;8.67;;
71366;SDS011;60030;52.274;8.040;2023-02-03T00:32:07;17.53;;;9.33;;
71366;SDS011;60030;52.274;8.040;2023-02-03T00:34:35;15.53;;;9.40;;
71366;SDS011;60030;52.274;8.040;2023-02-03T00:37:02;17.40;;;9.20;;
71366;SDS011;60030;52.274;8.040;2023-02-03T00:39:29;14.53;;;9.23;;
71366;SDS011;60030;52.274;8.040;2023-02-03T00:41:56;14.23;;;9.40;;
71366;SDS011;60030;52.274;8.040;2023-02-03T00:44:23;13.57;;;9.10;;
71366;SDS011;60030;52.274;8.040;2023-02-03T00:46:50;12.97;;;8.87;;
71366;SDS011;60030;52.274;8.040;2023-02-03T00:49:19;15.33;;;9.07;;
71366;SDS011;60030;52.274;8.040;2023-02-03T00:51:46;15.17;;;8.83;;
71366;SDS011;60030;52.274;8.040;2023-02-03T00:54:13;15.10;;;9.40;;
71366;SDS011;60030;52.274;8.040;2023-02-03T00:56:40;15.57;;;8.97;;
71366;SDS011;60030;52.274;8.040;2023-02-03T00:59:07;12.53;;;8.63;;
71366;SDS011;60030;52.274;8.040;2023-02-03T01:01:34;11.20;;;8.33;;
71366;SDS011;60030;52.274;8.040;2023-02-03T01:04:02;13.20;;;8.10;;
71366;SDS011;60030;52.274;8.040;2023-02-03T01:06:33;11.43;;;7.87;;
71366;SDS011;60030;52.274;8.040;2023-02-03T01:09:00;11.13;;;8.13;;
71366;SDS011;60030;52.274;8.040;2023-02-03T01:11:28;10.20;;;7.53;;
71366;SDS011;60030;52.274;8.040;2023-02-03T01:13:55;12.37;;;7.03;;
71366;SDS011;60030;52.274;8.040;2023-02-03T01:16:27;15.80;;;7.43;;
71366;SDS011;60030;52.274;8.040;2023-02-03T01:18:55;10.90;;;6.93;;
71366;SDS011;60030;52.274;8.040;2023-02-03T01:21:23;13.87;;;7.30;;
71366;SDS011;60030;52.274;8.040;2023-02-03T01:23:52;14.77;;;7.30;;
71366;SDS011;60030;52.274;8.040;2023-02-03T01:26:21;14.63;;;7.97;;
71366;SDS011;60030;52.274;8.040;2023-02-03T01:28:50;12.60;;;6.80;;
71366;SDS011;60030;52.274;8.040;2023-02-03T01:31:19;13.17;;;6.97;;
71366;SDS011;60030;52.274;8.040;2023-02-03T01:33:47;10.53;;;6.33;;
71366;SDS011;60030;52.274;8.040;2023-02-03T01:36:16;13.03;;;6.33;;
71366;SDS011;60030;52.274;8.040;2023-02-03T01:38:44;9.47;;;6.10;;
71366;SDS011;60030;52.274;8.040;2023-02-03T01:41:13;12.17;;;6.27;;
71366;SDS011;60030;52.274;8.040;2023-02-03T01:43:44;10.07;;;6.90;;
71366;SDS011;60030;52.274;8.040;2023-02-03T01:46:17;15.03;;;6.87;;
71366;SDS011;60030;52.274;8.040;2023-02-03T01:48:50;9.67;;;6.63;;
71366;SDS011;60030;52.274;8.040;2023-02-03T01:51:20;9.37;;;5.53;;
71366;SDS011;60030;52.274;8.040;2023-02-03T01:53:48;11.17;;;5.70;;
71366;SDS011;60030;52.274;8.040;2023-02-03T01:56:18;13.80;;;6.27;;
71366;SDS011;60030;52.274;8.040;2023-02-03T01:58:45;14.30;;;5.93;;
71366;SDS011;60030;52.274;8.040;2023-02-03T02:01:13;12.93;;;5.73;;
71366;SDS011;60030;52.274;8.040;2023-02-03T02:03:41;16.90;;;6.30;;
71366;SDS011;60030;52.274;8.040;2023-02-03T02:06:12;9.80;;;5.47;;
71366;SDS011;60030;52.274;8.040;2023-02-03T02:08:40;10.87;;;6.40;;
71366;SDS011;60030;52.274;8.040;2023-02-03T02:11:10;11.30;;;6.90;;
71366;SDS011;60030;52.274;8.040;2023-02-03T02:13:41;10.17;;;6.43;;
71366;SDS011;60030;52.274;8.040;2023-02-03T02:16:11;12.57;;;5.63;;
71366;SDS011;60030;52.274;8.040;2023-02-03T02:18:46;12.17;;;6.23;;
71366;SDS011;60030;52.274;8.040;2023-02-03T02:21:25;12.00;;;6.57;;
71366;SDS011;60030;52.274;8.040;2023-02-03T02:27:01;8.73;;;6.10;;
71366;SDS011;60030;52.274;8.040;2023-02-03T02:32:41;16.60;;;6.63;;
71366;SDS011;60030;52.274;8.040;2023-02-03T02:35:20;10.63;;;6.40;;
71366;SDS011;60030;52.274;8.040;2023-02-03T02:37:58;12.20;;;6.30;;
71366;SDS011;60030;52.274;8.040;2023-02-03T02:40:31;9.53;;;6.63;;
71366;SDS011;60030;52.274;8.040;2023-02-03T02:43:05;11.57;;;6.57;;
71366;SDS011;60030;52.274;8.040;2023-02-03T02:45:39;12.17;;;5.97;;
71366;SDS011;60030;52.274;8.040;2023-02-03T02:48:14;11.13;;;6.90;;
71366;SDS011;60030;52.274;8.040;2023-02-03T02:50:49;11.13;;;5.93;;
71366;SDS011;60030;52.274;8.040;2023-02-03T02:53:20;13.03;;;6.33;;
71366;SDS011;60030;52.274;8.040;2023-02-03T02:55:52;10.37;;;6.43;;
71366;SDS011;60030;52.274;8.040;2023-02-03T02:58:20;16.77;;;6.63;;
71366;SDS011;60030;52.274;8.040;2023-02-03T03:00:50;9.63;;;5.93;;
71366;SDS011;60030;52.274;8.040;2023-02-03T03:03:19;12.57;;;6.30;;
71366;SDS011;60030;52.274;8.040;2023-02-03T03:05:48;15.57;;;6.10;;
71366;SDS011;60030;52.274;8.040;2023-02-03T03:08:22;10.20;;;5.87;;
71366;SDS011;60030;52.274;8.040;2023-02-03T03:10:54;11.93;;;6.47;;
71366;SDS011;60030;52.274;8.040;2023-02-03T03:13:25;18.30;;;6.03;;
71366;SDS011;60030;52.274;8.040;2023-02-03T03:15:58;11.93;;;6.00;;
71366;SDS011;60030;52.274;8.040;2023-02-03T03:18:29;10.67;;;6.50;;
71366;SDS011;60030;52.274;8.040;2023-02-03T03:21:00;7.93;;;5.43;;
71366;SDS011;60030;52.274;8.040;2023-02-03T03:23:32;13.00;;;6.00;;
71366;SDS011;60030;52.274;8.040;2023-02-03T03:26:09;10.83;;;5.87;;
71366;SDS011;60030;52.274;8.040;2023-02-03T03:28:41;11.90;;;5.83;;
71366;SDS011;60030;52.274;8.040;2023-02-03T03:31:13;10.73;;;5.60;;
71366;SDS011;60030;52.274;8.040;2023-02-03T03:33:43;9.77;;;6.20;;
71366;SDS011;60030;52.274;8.040;2023-02-03T03:36:13;9.03;;;5.47;;
71366;SDS011;60030;52.274;8.040;2023-02-03T03:38:49;9.77;;;5.40;;
71366;SDS011;60030;52.274;8.040;2023-02-03T03:41:24;7.80;;;5.17;;
71366;SDS011;60030;52.274;8.040;2023-02-03T03:43:56;10.07;;;5.43;;
71366;SDS011;60030;52.274;8.040;2023-02-03T03:46:28;10.77;;;5.10;;
71366;SDS011;60030;52.274;8.040;2023-02-03T03:49:03;10.50;;;5.20;;
71366;SDS011;60030;52.274;8.040;2023-02-03T03:51:33;10.53;;;5.10;;
71366;SDS011;60030;52.274;8.040;2023-02-03T03:54:05;9.37;;;5.17;;
71366;SDS011;60030;52.274;8.040;2023-02-03T03:56:35;10.07;;;4.70;;
71366;SDS011;60030;52.274;8.040;2023-02-03T03:59:05;8.47;;;4.77;;
71366;SDS011;60030;52.274;8.040;2023-02-03T04:01:34;11.27;;;5.13;;
71366;SDS011;60030;52.274;8.040;2023-02-03T04:04:04;11.97;;;5.40;;
71366;SDS011;60030;52.274;8.040;2023-02-03T04:06:35;7.17;;;4.53;;
71366;SDS011;60030;52.274;8.040;2023-02-03T04:09:04;9.00;;;4.50;;
71366;SDS011;60030;52.274;8.040;2023-02-03T04:11:31;9.10;;;4.57;;
71366;SDS011;60030;52.274;8.040;2023-02-03T04:14:16;9.10;;;4.63;;
71366;SDS011;60030;52.274;8.040;2023-02-03T04:16:43;9.23;;;4.50;;
71366;SDS011;60030;52.274;8.040;2023-02-03T04:19:11;10.40;;;3.90;;
71366;SDS011;60030;52.274;8.040;2023-02-03T04:21:38;11.13;;;4.40;;
71366;SDS011;60030;52.274;8.040;2023-02-03T04:24:05;10.47;;;4.00;;
71366;SDS011;60030;52.274;8.040;2023-02-03T04:26:33;12.20;;;4.27;;
71366;SDS011;60030;52.274;8.040;2023-02-03T04:29:00;9.80;;;3.73;;
71366;SDS011;60030;52.274;8.040;2023-02-03T04:31:27;9.30;;;4.10;;
71366;SDS011;60030;52.274;8.040;2023-02-03T04:33:55;7.00;;;4.30;;
71366;SDS011;60030;52.274;8.040;2023-02-03T04:36:23;10.93;;;3.80;;
71366;SDS011;60030;52.274;8.040;2023-02-03T04:38:50;6.93;;;3.67;;
71366;SDS011;60030;52.274;8.040;2023-02-03T04:41:17;10.27;;;3.70;;
71366;SDS011;60030;52.274;8.040;2023-02-03T04:43:44;6.27;;;3.30;;
71366;SDS011;60030;52.274;8.040;2023-02-03T04:46:11;5.73;;;3.20;;
71366;SDS011;60030;52.274;8.040;2023-02-03T04:48:38;10.63;;;3.53;;
71366;SDS011;60030;52.274;8.040;2023-02-03T04:51:06;9.83;;;3.10;;
71366;SDS011;60030;52.274;8.040;2023-02-03T04:53:35;7.37;;;3.13;;
71366;SDS011;60030;52.274;8.040;2023-02-03T04:56:02;10.47;;;3.50;;
71366;SDS011;60030;52.274;8.040;2023-02-03T04:58:30;8.17;;;3.40;;
71366;SDS011;60030;52.274;8.040;2023-02-03T05:00:57;11.27;;;3.87;;
71366;SDS011;60030;52.274;8.040;2023-02-03T05:03:31;5.83;;;3.17;;
71366;SDS011;60030;52.274;8.040;2023-02-03T05:05:58;5.17;;;3.13;;
71366;SDS011;60030;52.274;8.040;2023-02-03T05:08:25;9.60;;;3.30;;
71366;SDS011;60030;52.274;8.040;2023-02-03T05:10:53;5.93;;;3.30;;
71366;SDS011;60030;52.274;8.040;2023-02-03T05:13:20;6.53;;;3.30;;
71366;SDS011;60030;52.274;8.040;2023-02-03T05:15:47;8.10;;;3.07;;
71366;SDS011;60030;52.274;8.040;2023-02-03T05:18:14;5.53;;;3.00;;
71366;SDS011;60030;52.274;8.040;2023-02-03T05:20:41;6.67;;;3.00;;
71366;SDS011;60030;52.274;8.040;2023-02-03T05:23:08;8.90;;;3.07;;
71366;SDS011;60030;52.274;8.040;2023-02-03T05:25:35;10.57;;;3.27;;
71366;SDS011;60030;52.274;8.040;2023-02-03T05:28:04;10.57;;;3.30;;
71366;SDS011;60030;52.274;8.040;2023-02-03T05:30:31;10.83;;;3.20;;
71366;SDS011;60030;52.274;8.040;2023-02-03T05:32:58;5.80;;;3.40;;
71366;SDS011;60030;52.274;8.040;2023-02-03T05:35:25;7.90;;;3.17;;
71366;SDS011;60030;52.274;8.040;2023-02-03T05:37:52;9.10;;;2.87;;
71366;SDS011;60030;52.274;8.040;2023-02-03T05:40:19;5.40;;;2.87;;
71366;SDS011;60030;52.274;8.040;2023-02-03T05:43:05;5.17;;;2.83;;
71366;SDS011;60030;52.274;8.040;2023-02-03T05:45:32;8.53;;;3.10;;
71366;SDS011;60030;52.274;8.040;2023-02-03T05:47:59;5.20;;;2.87;;
71366;SDS011;60030;52.274;8.040;2023-02-03T05:50:27;8.37;;;3.03;;
71366;SDS011;60030;52.274;8.040;2023-02-03T05:53:06;9.03;;;3.50;;
71366;SDS011;60030;52.274;8.040;2023-02-03T05:55:33;9.23;;;3.37;;
71366;SDS011;60030;52.274;8.040;2023-02-03T05:58:00;7.70;;;3.40;;
71366;SDS011;60030;52.274;8.040;2023-02-03T06:00:29;4.77;;;3.33;;
71366;SDS011;60030;52.274;8.040;2023-02-03T06:02:57;11.90;;;4.97;;
71366;SDS011;60030;52.274;8.040;2023-02-03T06:05:27;6.03;;;3.83;;
71366;SDS011;60030;52.274;8.040;2023-02-03T06:07:55;9.20;;;3.57;;
71366;SDS011;60030;52.274;8.040;2023-02-03T06:10:22;7.90;;;4.07;;
71366;SDS011;60030;52.274;8.040;2023-02-03T06:12:49;8.07;;;4.27;;
71366;SDS011;60030;52.274;8.040;2023-02-03T06:15:16;9.83;;;4.27;;
71366;SDS011;60030;52.274;8.040;2023-02-03T06:17:45;11.37;;;4.13;;
71366;SDS011;60030;52.274;8.040;2023-02-03T06:20:14;8.67;;;4.37;;
71366;SDS011;60030;52.274;8.040;2023-02-03T06:22:43;9.47;;;4.17;;
71366;SDS011;60030;52.274;8.040;2023-02-03T06:25:11;6.07;;;3.83;;
71366;SDS011;60030;52.274;8.040;2023-02-03T06:27:39;8.23;;;4.17;;
71366;SDS011;60030;52.274;8.040;2023-02-03T06:30:07;8.30;;;4.30;;
71366;SDS011;60030;52.274;8.040;2023-02-03T06:32:35;9.33;;;4.00;;
71366;SDS011;60030;52.274;8.040;2023-02-03T06:35:04;13.40;;;4.20;;
71366;SDS011;60030;52.274;8.040;2023-02-03T06:37:32;7.77;;;4.23;;
71366;SDS011;60030;52.274;8.040;2023-02-03T06:39:59;6.70;;;3.53;;
71366;SDS011;60030;52.274;8.040;2023-02-03T06:42:27;8.07;;;4.37;;
71366;SDS011;60030;52.274;8.040;2023-02-03T06:44:54;6.87;;;3.87;;
71366;SDS011;60030;52.274;8.040;2023-02-03T06:47:21;6.20;;;3.50;;
71366;SDS011;60030;52.274;8.040;2023-02-03T06:49:48;8.90;;;3.37;;
71366;SDS011;60030;52.274;8.040;2023-02-03T06:52:18;8.80;;;3.60;;
71366;SDS011;60030;52.274;8.040;2023-02-03T06:54:45;8.93;;;4.07;;
71366;SDS011;60030;52.274;8.040;2023-02-03T06:57:12;5.37;;;3.97;;
71366;SDS011;60030;52.274;8.040;2023-02-03T06:59:39;7.53;;;3.47;;
71366;SDS011;60030;52.274;8.040;2023-02-03T07:02:08;8.63;;;4.30;;
71366;SDS011;60030;52.274;8.040;2023-02-03T07:04:36;11.03;;;4.33;;
71366;SDS011;60030;52.274;8.040;2023-02-03T07:07:03;9.63;;;4.13;;
71366;SDS011;60030;52.274;8.040;2023-02-03T07:09:31;10.70;;;4.13;;
71366;SDS011;60030;52.274;8.040;2023-02-03T07:11:58;9.03;;;3.80;;
71366;SDS011;60030;52.274;8.040;2023-02-03T07:14:25;8.20;;;4.10;;
71366;SDS011;60030;52.274;8.040;2023-02-03T07:16:52;9.87;;;3.70;;
71366;SDS011;60030;52.274;8.040;2023-02-03T07:19:19;7.03;;;3.83;;
71366;SDS011;60030;52.274;8.040;2023-02-03T07:21:47;11.83;;;3.90;;
71366;SDS011;60030;52.274;8.040;2023-02-03T07:24:14;6.20;;;3.63;;
71366;SDS011;60030;52.274;8.040;2023-02-03T07:26:42;9.93;;;4.37;;
71366;SDS011;60030;52.274;8.040;2023-02-03T07:29:09;9.23;;;3.90;;
71366;SDS011;60030;52.274;8.040;2023-02-03T07:31:36;7.57;;;3.83;;
71366;SDS011;60030;52.274;8.040;2023-02-03T07:34:03;5.83;;;3.40;;
71366;SDS011;60030;52.274;8.040;2023-02-03T07:36:31;10.33;;;4.27;;
71366;SDS011;60030;52.274;8.040;2023-02-03T07:38:58;8.10;;;3.83;;
71366;SDS011;60030;52.274;8.040;2023-02-03T07:41:25;6.00;;;3.50;;
71366;SDS011;60030;52.274;8.040;2023-02-03T07:43:53;12.33;;;4.00;;
71366;SDS011;60030;52.274;8.040;2023-02-03T07:46:20;8.20;;;3.90;;
71366;SDS011;60030;52.274;8.040;2023-02-03T07:48:47;9.03;;;3.83;;
71366;SDS011;60030;52.274;8.040;2023-02-03T07:51:14;8.33;;;3.77;;
71366;SDS011;60030;52.274;8.040;2023-02-03T07:53:41;9.00;;;3.80;;
71366;SDS011;60030;52.274;8.040;2023-02-03T07:56:09;9.40;;;3.73;;
71366;SDS011;60030;52.274;8.040;2023-02-03T07:58:36;6.87;;;3.20;;
71366;SDS011;60030;52.274;8.040;2023-02-03T08:01:10;10.93;;;3.43;;
71366;SDS011;60030;52.274;8.040;2023-02-03T08:03:39;10.53;;;3.70;;
71366;SDS011;60030;52.274;8.040;2023-02-03T08:06:06;6.17;;;3.40;;
71366;SDS011;60030;52.274;8.040;2023-02-03T08:08:33;7.53;;;4.00;;
71366;SDS011;60030;52.274;8.040;2023-02-03T08:11:01;12.10;;;4.00;;
71366;SDS011;60030;52.274;8.040;2023-02-03T08:13:28;7.60;;;3.40;;
71366;SDS011;60030;52.274;8.040;2023-02-03T08:15:55;9.67;;;3.47;;
71366;SDS011;60030;52.274;8.040;2023-02-03T08:18:23;7.50;;;3.07;;
71366;SDS011;60030;52.274;8.040;2023-02-03T08:20:50;7.63;;;3.07;;
71366;SDS011;60030;52.274;8.040;2023-02-03T08:23:18;7.13;;;3.30;;
71366;SDS011;60030;52.274;8.040;2023-02-03T08:25:48;10.30;;;4.10;;
71366;SDS011;60030;52.274;8.040;2023-02-03T08:28:16;7.03;;;3.00;;
71366;SDS011;60030;52.274;8.040;2023-02-03T08:30:43;9.20;;;3.77;;
71366;SDS011;60030;52.274;8.040;2023-02-03T08:33:13;8.00;;;3.40;;
71366;SDS011;60030;52.274;8.040;2023-02-03T08:35:45;5.00;;;3.00;;
71366;SDS011;60030;52.274;8.040;2023-02-03T08:38:12;6.80;;;2.90;;
71366;SDS011;60030;52.274;8.040;2023-02-03T08:40:39;10.17;;;3.47;;
71366;SDS011;60030;52.274;8.040;2023-02-03T08:43:07;8.97;;;2.47;;
71366;SDS011;60030;52.274;8.040;2023-02-03T08:45:35;9.93;;;3.00;;
71366;SDS011;60030;52.274;8.040;2023-02-03T08:48:02;7.77;;;2.73;;
71366;SDS011;60030;52.274;8.040;2023-02-03T08:50:29;8.47;;;2.87;;
71366;SDS011;60030;52.274;8.040;2023-02-03T08:52:58;6.10;;;2.60;;
71366;SDS011;60030;52.274;8.040;2023-02-03T08:55:25;7.70;;;2.70;;
71366;SDS011;60030;52.274;8.040;2023-02-03T08:57:52;7.03;;;2.70;;
71366;SDS011;60030;52.274;8.040;2023-02-03T09:00:19;7.27;;;2.43;;
71366;SDS011;60030;52.274;8.040;2023-02-03T09:02:47;12.17;;;3.00;;
71366;SDS011;60030;52.274;8.040;2023-02-03T09:05:14;8.50;;;2.80;;
71366;SDS011;60030;52.274;8.040;2023-02-03T09:07:42;7.70;;;2.53;;
71366;SDS011;60030;52.274;8.040;2023-02-03T09:10:11;8.77;;;2.73;;
71366;SDS011;60030;52.274;8.040;2023-02-03T09:12:38;5.10;;;2.10;;
71366;SDS011;60030;52.274;8.040;2023-02-03T09:15:05;8.20;;;3.00;;
71366;SDS011;60030;52.274;8.040;2023-02-03T09:17:33;4.40;;;2.63;;
71366;SDS011;60030;52.274;8.040;2023-02-03T09:20:00;8.67;;;2.50;;
71366;SDS011;60030;52.274;8.040;2023-02-03T09:22:27;8.50;;;2.53;;
71366;SDS011;60030;52.274;8.040;2023-02-03T09:24:54;4.83;;;2.30;;
71366;SDS011;60030;52.274;8.040;2023-02-03T09:27:22;6.43;;;2.60;;
71366;SDS011;60030;52.274;8.040;2023-02-03T09:29:49;8.10;;;2.60;;
71366;SDS011;60030;52.274;8.040;2023-02-03T09:32:16;7.90;;;2.83;;
71366;SDS011;60030;52.274;8.040;2023-02-03T09:34:43;9.10;;;2.37;;
71366;SDS011;60030;52.274;8.040;2023-02-03T09:37:10;4.17;;;2.13;;
71366;SDS011;60030;52.274;8.040;2023-02-03T09:39:38;6.97;;;2.57;;
71366;SDS011;60030;52.274;8.040;2023-02-03T09:42:10;7.40;;;2.50;;
71366;SDS011;60030;52.274;8.040;2023-02-03T09:45:01;4.57;;;2.13;;
71366;SDS011;60030;52.274;8.040;2023-02-03T09:47:36;4.90;;;2.30;;
71366;SDS011;60030;52.274;8.040;2023-02-03T09:50:06;12.53;;;2.57;;
71366;SDS011;60030;52.274;8.040;2023-02-03T09:52:39;8.87;;;2.50;;
71366;SDS011;60030;52.274;8.040;2023-02-03T09:55:12;6.87;;;2.50;;
71366;SDS011;60030;52.274;8.040;2023-02-03T09:57:52;5.43;;;2.63;;
71366;SDS011;60030;52.274;8.040;2023-02-03T10:00:25;4.17;;;1.90;;
71366;SDS011;60030;52.274;8.040;2023-02-03T10:02:56;7.37;;;2.50;;
71366;SDS011;60030;52.274;8.040;2023-02-03T10:05:31;8.30;;;2.13;;
71366;SDS011;60030;52.274;8.040;2023-02-03T10:08:13;8.23;;;2.43;;
71366;SDS011;60030;52.274;8.040;2023-02-03T10:10:49;3.77;;;2.10;;
71366;SDS011;60030;52.274;8.040;2023-02-03T10:13:37;6.07;;;2.30;;
71366;SDS011;60030;52.274;8.040;2023-02-03T10:16:14;7.57;;;2.30;;
71366;SDS011;60030;52.274;8.040;2023-02-03T10:18:54;6.17;;;2.40;;
71366;SDS011;60030;52.274;8.040;2023-02-03T10:21:35;5.00;;;2.40;;
71366;SDS011;60030;52.274;8.040;2023-02-03T10:24:05;7.57;;;2.47;;
71366;SDS011;60030;52.274;8.040;2023-02-03T10:26:39;7.63;;;2.50;;
71366;SDS011;60030;52.274;8.040;2023-02-03T10:29:17;7.67;;;2.67;;
71366;SDS011;60030;52.274;8.040;2023-02-03T10:31:46;6.37;;;2.73;;
71366;SDS011;60030;52.274;8.040;2023-02-03T10:34:14;4.07;;;2.00;;
71366;SDS011;60030;52.274;8.040;2023-02-03T10:36:52;8.57;;;2.87;;
71366;SDS011;60030;52.274;8.040;2023-02-03T10:39:26;7.57;;;2.47;;
71366;SDS011;60030;52.274;8.040;2023-02-03T10:41:57;6.80;;;2.63;;
71366;SDS011;60030;52.274;8.040;2023-02-03T10:44:29;10.57;;;2.70;;
71366;SDS011;60030;52.274;8.040;2023-02-03T10:47:00;7.10;;;2.60;;
71366;SDS011;60030;52.274;8.040;2023-02-03T10:49:28;10.50;;;2.87;;
71366;SDS011;60030;52.274;8.040;2023-02-03T10:51:56;10.30;;;2.70;;
71366;SDS011;60030;52.274;8.040;2023-02-03T10:54:29;8.53;;;2.40;;
71366;SDS011;60030;52.274;8.040;2023-02-03T10:57:01;11.33;;;2.40;;
71366;SDS011;60030;52.274;8.040;2023-02-03T10:59:32;5.70;;;2.23;;
71366;SDS011;60030;52.274;8.040;2023-02-03T11:02:06;9.37;;;2.53;;
71366;SDS011;60030;52.274;8.040;2023-02-03T11:04:34;12.30;;;3.43;;
71366;SDS011;60030;52.274;8.040;2023-02-03T11:07:02;10.27;;;3.00;;
71366;SDS011;60030;52.274;8.040;2023-02-03T11:09:32;8.47;;;2.50;;
71366;SDS011;60030;52.274;8.040;2023-02-03T11:12:04;9.97;;;2.20;;
71366;SDS011;60030;52.274;8.040;2023-02-03T11:14:38;10.77;;;2.20;;
71366;SDS011;60030;52.274;8.040;2023-02-03T11:17:11;12.70;;;2.57;;
71366;SDS011;60030;52.274;8.040;2023-02-03T11:19:42;10.67;;;2.83;;
71366;SDS011;60030;52.274;8.040;2023-02-03T11:22:11;11.23;;;2.93;;
71366;SDS011;60030;52.274;8.040;2023-02-03T11:24:40;11.13;;;2.53;;
71366;SDS011;60030;52.274;8.040;2023-02-03T11:27:10;12.10;;;3.17;;
71366;SDS011;60030;52.274;8.040;2023-02-03T11:29:42;8.30;;;3.20;;
71366;SDS011;60030;52.274;8.040;2023-02-03T11:32:16;11.80;;;3.10;;
71366;SDS011;60030;52.274;8.040;2023-02-03T11:34:46;12.17;;;3.10;;
71366;SDS011;60030;52.274;8.040;2023-02-03T11:37:27;15.50;;;3.03;;
71366;SDS011;60030;52.274;8.040;2023-02-03T11:40:11;12.30;;;3.23;;
71366;SDS011;60030;52.274;8.040;2023-02-03T11:42:58;15.17;;;2.83;;
71366;SDS011;60030;52.274;8.040;2023-02-03T11:45:29;10.47;;;3.63;;
71366;SDS011;60030;52.274;8.040;2023-02-03T11:48:05;16.63;;;3.40;;
71366;SDS011;60030;52.274;8.040;2023-02-03T11:50:42;8.53;;;2.63;;
71366;SDS011;60030;52.274;8.040;2023-02-03T11:53:18;16.93;;;3.30;;
71366;SDS011;60030;52.274;8.040;2023-02-03T11:58:55;11.73;;;2.60;;
71366;SDS011;60030;52.274;8.040;2023-02-03T12:01:55;12.07;;;3.23;;
71366;SDS011;60030;52.274;8.040;2023-02-03T12:04:45;14.90;;;3.30;;
71366;SDS011;60030;52.274;8.040;2023-02-03T12:07:26;13.80;;;3.20;;
71366;SDS011;60030;52.274;8.040;2023-02-03T12:10:02;15.00;;;3.00;;
71366;SDS011;60030;52.274;8.040;2023-02-03T12:12:38;14.87;;;3.03;;
71366;SDS011;60030;52.274;8.040;2023-02-03T12:18:18;14.63;;;3.27;;
71366;SDS011;60030;52.274;8.040;2023-02-03T12:20:57;11.37;;;2.90;;
71366;SDS011;60030;52.274;8.040;2023-02-03T12:23:41;12.70;;;2.90;;
71366;SDS011;60030;52.274;8.040;2023-02-03T12:26:19;12.73;;;3.13;;
71366;SDS011;60030;52.274;8.040;2023-02-03T12:28:50;12.90;;;3.50;;
71366;SDS011;60030;52.274;8.040;2023-02-03T12:31:26;15.97;;;3.87;;
71366;SDS011;60030;52.274;8.040;2023-02-03T12:34:05;14.67;;;3.10;;
71366;SDS011;60030;52.274;8.040;2023-02-03T12:36:41;17.53;;;4.03;;
71366;SDS011;60030;52.274;8.040;2023-02-03T12:39:14;15.30;;;3.20;;
71366;SDS011;60030;52.274;8.040;2023-02-03T12:41:47;15.70;;;3.07;;
71366;SDS011;60030;52.274;8.040;2023-02-03T12:44:21;19.10;;;3.67;;
71366;SDS011;60030;52.274;8.040;2023-02-03T12:46:54;16.43;;;3.83;;
71366;SDS011;60030;52.274;8.040;2023-02-03T12:49:31;12.03;;;2.97;;
71366;SDS011;60030;52.274;8.040;2023-02-03T12:52:05;16.37;;;2.80;;
71366;SDS011;60030;52.274;8.040;2023-02-03T12:54:43;16.03;;;3.77;;
71366;SDS011;60030;52.274;8.040;2023-02-03T12:57:17;17.77;;;4.13;;
71366;SDS011;60030;52.274;8.040;2023-02-03T12:59:55;20.03;;;4.80;;
71366;SDS011;60030;52.274;8.040;2023-02-03T13:02:34;18.73;;;3.77;;
71366;SDS011;60030;52.274;8.040;2023-02-03T13:05:14;17.77;;;3.93;;
71366;SDS011;60030;52.274;8.040;2023-02-03T13:07:47;16.73;;;3.17;;
71366;SDS011;60030;52.274;8.040;2023-02-03T13:10:20;19.03;;;4.63;;
71366;SDS011;60030;52.274;8.040;2023-02-03T13:12:52;15.73;;;3.07;;
71366;SDS011;60030;52.274;8.040;2023-02-03T13:15:23;19.50;;;3.43;;
71366;SDS011;60030;52.274;8.040;2023-02-03T13:17:55;14.50;;;3.00;;
71366;SDS011;60030;52.274;8.040;2023-02-03T13:20:28;18.00;;;3.30;;
71366;SDS011;60030;52.274;8.040;2023-02-03T13:23:00;18.13;;;4.20;;
71366;SDS011;60030;52.274;8.040;2023-02-03T13:25:34;16.40;;;3.53;;
71366;SDS011;60030;52.274;8.040;2023-02-03T13:28:12;14.00;;;3.40;;
71366;SDS011;60030;52.274;8.040;2023-02-03T13:30:54;15.87;;;3.40;;
71366;SDS011;60030;52.274;8.040;2023-02-03T13:33:45;15.80;;;3.67;;
71366;SDS011;60030;52.274;8.040;2023-02-03T13:36:32;18.23;;;3.37;;
71366;SDS011;60030;52.274;8.040;2023-02-03T13:39:32;15.57;;;3.53;;
71366;SDS011;60030;52.274;8.040;2023-02-03T13:42:11;18.43;;;3.93;;
71366;SDS011;60030;52.274;8.040;2023-02-03T13:44:46;16.90;;;3.50;;
71366;SDS011;60030;52.274;8.040;2023-02-03T13:47:17;15.97;;;3.80;;
71366;SDS011;60030;52.274;8.040;2023-02-03T13:49:48;17.93;;;3.53;;
71366;SDS011;60030;52.274;8.040;2023-02-03T13:52:24;11.43;;;2.73;;
71366;SDS011;60030;52.274;8.040;2023-02-03T13:54:54;19.77;;;3.43;;
71366;SDS011;60030;52.274;8.040;2023-02-03T13:57:25;16.13;;;3.60;;
71366;SDS011;60030;52.274;8.040;2023-02-03T13:59:59;16.37;;;3.47;;
71366;SDS011;60030;52.274;8.040;2023-02-03T14:02:41;15.80;;;3.50;;
71366;SDS011;60030;52.274;8.040;2023-02-03T14:11:40;18.23;;;4.47;;
71366;SDS011;60030;52.274;8.040;2023-02-03T14:23:22;15.97;;;3.53;;
71366;SDS011;60030;52.274;8.040;2023-02-03T14:25:53;13.37;;;3.57;;
71366;SDS011;60030;52.274;8.040;2023-02-03T14:28:26;19.07;;;3.47;;
71366;SDS011;60030;52.274;8.040;2023-02-03T14:31:09;18.27;;;2.73;;
71366;SDS011;60030;52.274;8.040;2023-02-03T14:36:51;12.47;;;2.77;;
71366;SDS011;60030;52.274;8.040;2023-02-03T14:42:44;13.53;;;2.83;;
71366;SDS011;60030;52.274;8.040;2023-02-03T14:45:48;16.20;;;2.87;;
71366;SDS011;60030;52.274;8.040;2023-02-03T14:48:35;14.30;;;2.50;;
71366;SDS011;60030;52.274;8.040;2023-02-03T14:51:12;11.77;;;2.23;;
71366;SDS011;60030;52.274;8.040;2023-02-03T14:54:01;15.57;;;2.73;;
71366;SDS011;60030;52.274;8.040;2023-02-03T14:56:45;15.13;;;2.87;;
71366;SDS011;60030;52.274;8.040;2023-02-03T14:59:37;15.40;;;3.60;;
71366;SDS011;60030;52.274;8.040;2023-02-03T15:02:17;12.73;;;3.07;;
71366;SDS011;60030;52.274;8.040;2023-02-03T15:04:47;12.80;;;3.20;;
71366;SDS011;60030;52.274;8.040;2023-02-03T15:07:34;16.77;;;2.90;;
71366;SDS011;60030;52.274;8.040;2023-02-03T15:10:08;15.43;;;2.70;;
71366;SDS011;60030;52.274;8.040;2023-02-03T15:12:42;9.93;;;2.90;;
71366;SDS011;60030;52.274;8.040;2023-02-03T15:15:16;10.77;;;2.87;;
71366;SDS011;60030;52.274;8.040;2023-02-03T15:17:54;15.00;;;3.50;;
71366;SDS011;60030;52.274;8.040;2023-02-03T15:20:29;12.37;;;3.00;;
71366;SDS011;60030;52.274;8.040;2023-02-03T15:22:59;16.17;;;2.80;;
71366;SDS011;60030;52.274;8.040;2023-02-03T15:25:27;22.47;;;3.50;;
71366;SDS011;60030;52.274;8.040;2023-02-03T15:28:10;15.83;;;3.00;;
71366;SDS011;60030;52.274;8.040;2023-02-03T15:30:40;15.57;;;3.13;;
71366;SDS011;60030;52.274;8.040;2023-02-03T15:33:10;13.90;;;3.30;;
71366;SDS011;60030;52.274;8.040;2023-02-03T15:35:40;15.33;;;3.00;;
71366;SDS011;60030;52.274;8.040;2023-02-03T15:38:11;17.43;;;4.07;;